Aérodrome :
LOGIN :

S'inscrire | Disclaimer

   EN    FR    IT 

 










Légende :    VFR   VFR Marginal   IFR   IFR Intensif   IFR Très Intensif
Visi : 
Plafond : 
>= 8 km
>= 3000ft
5 à 8 km
1000 à 3000 ft
1500m à 5 km
500 à 1000 ft
800 à 1500m
200 à 500 ft
< 800m
< 200 ft
Symboles :   Orages  Brouillard  Fortes neiges  Fortes précipitations  Vent > 20 kt
SIGMETs :   Divers  Orages  Givrage  Turbulence  Onde Orograph.  Cendres Volcan.







- Altitude de l'aérodrome : 659 ft
- Code IATA : LGG


EBLG - Liège

DERNIER METAR :
  • 280620Z 19006KT 150V210 9999 FEW011 SCT040 18/17 Q0997 NOSIG

METARs EXPIRÉS :
  • 280550Z 19006KT 9999 FEW010 SCT043 18/16 Q0997 NOSIG
  • 280520Z 19006KT 9999 -RA FEW010 SCT043 18/16 Q0998 NOSIG
  • 280450Z 17007KT 9999 FEW010 SCT038 18/16 Q0998 NOSIG
  • 280420Z 17007KT 150V210 9999 -SHRA FEW035 18/16 Q0998 NOSIG
  • 280350Z 16006KT 140V200 9999 FEW035 18/16 Q0998 NOSIG

TAF TAF EBLG
Valide du 28 à 06h jusqu'au 29 à 12h UTC


280500Z 2806/2912 13004KT 9999 FEW030
PROB40
TEMPO 2806/2808 4000 BR BKN006
PROB30
TEMPO 2806/2811 3500 SHRA TSRA
BECMG 2806/2808 23010KT
PROB40
TEMPO 2819/2906 3500 SHRA BKN014CB
Pas de NOTAMs connus pour ce terrain.



MET'MAP, la Météo Aéronautique d'un coup d'oeil ! - Copyright ORBIFLY Décembre 2007 - Disclaimer

ORBIFLY MET'MAP TEAM :

Programmation & Développement : Alexandra Zaïnal
Conception & Développement : Baudouin d'Aumeries
Co-Programmation & Développement : Marc-Olivier Méhu
Soutien technique & logistique : Manuel Goepfert

Contact : metmap@orbifly.com




SOURCES & CREDITS :

   NOAA